sensor_id;sensor_type;location;lat;lon;timestamp;P1;durP1;ratioP1;P2;durP2;ratioP2
20814;SDS011;10568;48.176;16.316;2022-07-29T00:00:43;4.78;;;3.10;;
20814;SDS011;10568;48.176;16.316;2022-07-29T00:03:10;5.13;;;3.00;;
20814;SDS011;10568;48.176;16.316;2022-07-29T00:05:39;5.22;;;3.05;;
20814;SDS011;10568;48.176;16.316;2022-07-29T00:08:06;5.00;;;3.20;;
20814;SDS011;10568;48.176;16.316;2022-07-29T00:10:33;3.13;;;2.83;;
20814;SDS011;10568;48.176;16.316;2022-07-29T00:12:59;3.53;;;2.70;;
20814;SDS011;10568;48.176;16.316;2022-07-29T00:15:25;3.75;;;2.78;;
20814;SDS011;10568;48.176;16.316;2022-07-29T00:17:51;3.77;;;3.10;;
20814;SDS011;10568;48.176;16.316;2022-07-29T00:20:16;5.03;;;3.03;;
20814;SDS011;10568;48.176;16.316;2022-07-29T00:22:42;3.30;;;2.70;;
20814;SDS011;10568;48.176;16.316;2022-07-29T00:25:08;4.77;;;2.87;;
20814;SDS011;10568;48.176;16.316;2022-07-29T00:27:35;5.23;;;2.80;;
20814;SDS011;10568;48.176;16.316;2022-07-29T00:30:02;3.73;;;2.90;;
20814;SDS011;10568;48.176;16.316;2022-07-29T00:32:29;3.27;;;2.60;;
20814;SDS011;10568;48.176;16.316;2022-07-29T00:34:54;5.17;;;2.97;;
20814;SDS011;10568;48.176;16.316;2022-07-29T00:37:39;3.80;;;2.80;;
20814;SDS011;10568;48.176;16.316;2022-07-29T00:40:05;3.17;;;2.87;;
20814;SDS011;10568;48.176;16.316;2022-07-29T00:42:40;2.93;;;2.63;;
20814;SDS011;10568;48.176;16.316;2022-07-29T00:45:14;3.60;;;2.60;;
20814;SDS011;10568;48.176;16.316;2022-07-29T00:47:40;5.17;;;2.90;;
20814;SDS011;10568;48.176;16.316;2022-07-29T00:50:06;4.40;;;3.10;;
20814;SDS011;10568;48.176;16.316;2022-07-29T00:52:33;5.33;;;3.03;;
20814;SDS011;10568;48.176;16.316;2022-07-29T00:55:03;3.83;;;2.93;;
20814;SDS011;10568;48.176;16.316;2022-07-29T00:57:29;4.13;;;2.57;;
20814;SDS011;10568;48.176;16.316;2022-07-29T00:59:55;5.93;;;3.07;;
20814;SDS011;10568;48.176;16.316;2022-07-29T01:02:21;3.93;;;2.90;;
20814;SDS011;10568;48.176;16.316;2022-07-29T01:04:48;3.23;;;2.90;;
20814;SDS011;10568;48.176;16.316;2022-07-29T01:07:15;3.47;;;3.10;;
20814;SDS011;10568;48.176;16.316;2022-07-29T01:09:41;4.33;;;3.17;;
20814;SDS011;10568;48.176;16.316;2022-07-29T01:12:08;3.70;;;3.20;;
20814;SDS011;10568;48.176;16.316;2022-07-29T01:14:35;3.03;;;2.67;;
20814;SDS011;10568;48.176;16.316;2022-07-29T01:17:07;3.67;;;2.57;;
20814;SDS011;10568;48.176;16.316;2022-07-29T01:30:45;4.93;;;3.37;;
20814;SDS011;10568;48.176;16.316;2022-07-29T01:33:15;3.50;;;2.60;;
20814;SDS011;10568;48.176;16.316;2022-07-29T01:36:04;4.00;;;3.30;;
20814;SDS011;10568;48.176;16.316;2022-07-29T01:38:36;3.63;;;3.00;;
20814;SDS011;10568;48.176;16.316;2022-07-29T01:41:08;4.47;;;3.30;;
20814;SDS011;10568;48.176;16.316;2022-07-29T01:43:38;3.57;;;2.60;;
20814;SDS011;10568;48.176;16.316;2022-07-29T01:46:33;3.90;;;3.27;;
20814;SDS011;10568;48.176;16.316;2022-07-29T01:49:06;3.97;;;3.17;;
20814;SDS011;10568;48.176;16.316;2022-07-29T01:51:52;4.97;;;3.10;;
20814;SDS011;10568;48.176;16.316;2022-07-29T01:57:09;4.43;;;3.17;;
20814;SDS011;10568;48.176;16.316;2022-07-29T01:59:38;4.23;;;2.80;;
20814;SDS011;10568;48.176;16.316;2022-07-29T02:02:20;3.97;;;2.77;;
20814;SDS011;10568;48.176;16.316;2022-07-29T02:04:48;3.97;;;3.07;;
20814;SDS011;10568;48.176;16.316;2022-07-29T02:07:17;3.70;;;3.07;;
20814;SDS011;10568;48.176;16.316;2022-07-29T02:09:45;4.17;;;3.00;;
20814;SDS011;10568;48.176;16.316;2022-07-29T02:12:12;4.53;;;3.13;;
20814;SDS011;10568;48.176;16.316;2022-07-29T02:14:42;3.13;;;2.73;;
20814;SDS011;10568;48.176;16.316;2022-07-29T02:17:10;5.47;;;3.70;;
20814;SDS011;10568;48.176;16.316;2022-07-29T02:19:38;3.27;;;2.73;;
20814;SDS011;10568;48.176;16.316;2022-07-29T02:22:06;4.03;;;2.90;;
20814;SDS011;10568;48.176;16.316;2022-07-29T02:24:32;3.83;;;3.17;;
20814;SDS011;10568;48.176;16.316;2022-07-29T02:27:02;4.13;;;3.40;;
20814;SDS011;10568;48.176;16.316;2022-07-29T02:29:29;3.57;;;3.03;;
20814;SDS011;10568;48.176;16.316;2022-07-29T02:31:56;4.03;;;3.10;;
20814;SDS011;10568;48.176;16.316;2022-07-29T02:34:24;5.27;;;3.20;;
20814;SDS011;10568;48.176;16.316;2022-07-29T02:36:50;4.80;;;3.30;;
20814;SDS011;10568;48.176;16.316;2022-07-29T02:39:19;3.47;;;3.10;;
20814;SDS011;10568;48.176;16.316;2022-07-29T02:41:50;5.13;;;3.17;;
20814;SDS011;10568;48.176;16.316;2022-07-29T02:44:21;4.77;;;3.20;;
20814;SDS011;10568;48.176;16.316;2022-07-29T02:47:02;4.37;;;3.60;;
20814;SDS011;10568;48.176;16.316;2022-07-29T02:52:04;4.27;;;3.37;;
20814;SDS011;10568;48.176;16.316;2022-07-29T02:54:53;4.97;;;3.37;;
20814;SDS011;10568;48.176;16.316;2022-07-29T02:57:22;5.13;;;3.90;;
20814;SDS011;10568;48.176;16.316;2022-07-29T02:59:52;5.30;;;3.70;;
20814;SDS011;10568;48.176;16.316;2022-07-29T03:02:21;4.90;;;3.57;;
20814;SDS011;10568;48.176;16.316;2022-07-29T03:04:47;4.03;;;3.13;;
20814;SDS011;10568;48.176;16.316;2022-07-29T03:07:15;3.47;;;3.17;;
20814;SDS011;10568;48.176;16.316;2022-07-29T03:09:45;3.53;;;2.90;;
20814;SDS011;10568;48.176;16.316;2022-07-29T03:12:12;4.10;;;3.50;;
20814;SDS011;10568;48.176;16.316;2022-07-29T03:14:38;4.23;;;3.20;;
20814;SDS011;10568;48.176;16.316;2022-07-29T03:17:04;4.47;;;3.70;;
20814;SDS011;10568;48.176;16.316;2022-07-29T03:19:31;3.90;;;3.43;;
20814;SDS011;10568;48.176;16.316;2022-07-29T03:21:57;4.40;;;3.33;;
20814;SDS011;10568;48.176;16.316;2022-07-29T03:24:24;4.57;;;3.40;;
20814;SDS011;10568;48.176;16.316;2022-07-29T03:26:51;5.63;;;3.40;;
20814;SDS011;10568;48.176;16.316;2022-07-29T03:29:17;4.10;;;3.20;;
20814;SDS011;10568;48.176;16.316;2022-07-29T03:31:43;4.17;;;3.20;;
20814;SDS011;10568;48.176;16.316;2022-07-29T03:34:08;4.87;;;3.50;;
20814;SDS011;10568;48.176;16.316;2022-07-29T03:36:34;5.20;;;3.93;;
20814;SDS011;10568;48.176;16.316;2022-07-29T03:39:00;4.33;;;3.60;;
20814;SDS011;10568;48.176;16.316;2022-07-29T03:41:27;4.70;;;3.33;;
20814;SDS011;10568;48.176;16.316;2022-07-29T03:43:55;4.50;;;3.30;;
20814;SDS011;10568;48.176;16.316;2022-07-29T03:46:22;3.30;;;3.00;;
20814;SDS011;10568;48.176;16.316;2022-07-29T03:48:52;4.97;;;3.20;;
20814;SDS011;10568;48.176;16.316;2022-07-29T03:51:23;4.47;;;3.63;;
20814;SDS011;10568;48.176;16.316;2022-07-29T03:53:50;4.33;;;3.33;;
20814;SDS011;10568;48.176;16.316;2022-07-29T03:56:16;6.50;;;3.77;;
20814;SDS011;10568;48.176;16.316;2022-07-29T03:58:45;5.07;;;3.80;;
20814;SDS011;10568;48.176;16.316;2022-07-29T04:01:12;5.33;;;3.60;;
20814;SDS011;10568;48.176;16.316;2022-07-29T04:03:38;3.93;;;3.43;;
20814;SDS011;10568;48.176;16.316;2022-07-29T04:06:05;4.93;;;4.00;;
20814;SDS011;10568;48.176;16.316;2022-07-29T04:08:33;3.60;;;3.27;;
20814;SDS011;10568;48.176;16.316;2022-07-29T04:10:59;4.57;;;3.67;;
20814;SDS011;10568;48.176;16.316;2022-07-29T04:13:26;5.53;;;3.83;;
20814;SDS011;10568;48.176;16.316;2022-07-29T04:15:52;6.10;;;3.17;;
20814;SDS011;10568;48.176;16.316;2022-07-29T04:18:18;4.77;;;3.77;;
20814;SDS011;10568;48.176;16.316;2022-07-29T04:20:43;4.63;;;3.57;;
20814;SDS011;10568;48.176;16.316;2022-07-29T04:23:09;4.97;;;3.87;;
20814;SDS011;10568;48.176;16.316;2022-07-29T04:25:38;5.43;;;3.77;;
20814;SDS011;10568;48.176;16.316;2022-07-29T04:28:05;5.80;;;3.60;;
20814;SDS011;10568;48.176;16.316;2022-07-29T04:30:32;6.03;;;3.90;;
20814;SDS011;10568;48.176;16.316;2022-07-29T04:32:59;4.90;;;4.00;;
20814;SDS011;10568;48.176;16.316;2022-07-29T04:35:27;4.20;;;3.23;;
20814;SDS011;10568;48.176;16.316;2022-07-29T04:37:54;3.57;;;3.27;;
20814;SDS011;10568;48.176;16.316;2022-07-29T04:40:20;4.93;;;3.57;;
20814;SDS011;10568;48.176;16.316;2022-07-29T04:42:45;3.73;;;3.20;;
20814;SDS011;10568;48.176;16.316;2022-07-29T04:45:11;4.47;;;3.57;;
20814;SDS011;10568;48.176;16.316;2022-07-29T04:47:37;3.90;;;3.17;;
20814;SDS011;10568;48.176;16.316;2022-07-29T04:50:03;3.90;;;3.30;;
20814;SDS011;10568;48.176;16.316;2022-07-29T04:52:30;6.33;;;3.27;;
20814;SDS011;10568;48.176;16.316;2022-07-29T04:55:12;4.07;;;3.20;;
20814;SDS011;10568;48.176;16.316;2022-07-29T04:57:37;4.47;;;3.40;;
20814;SDS011;10568;48.176;16.316;2022-07-29T05:00:04;5.40;;;3.60;;
20814;SDS011;10568;48.176;16.316;2022-07-29T05:02:30;3.83;;;3.30;;
20814;SDS011;10568;48.176;16.316;2022-07-29T05:04:56;4.10;;;3.47;;
20814;SDS011;10568;48.176;16.316;2022-07-29T05:07:21;4.57;;;3.80;;
20814;SDS011;10568;48.176;16.316;2022-07-29T05:09:47;5.63;;;3.70;;
20814;SDS011;10568;48.176;16.316;2022-07-29T05:12:13;3.97;;;3.37;;
20814;SDS011;10568;48.176;16.316;2022-07-29T05:14:39;4.37;;;3.50;;
20814;SDS011;10568;48.176;16.316;2022-07-29T05:17:05;4.33;;;3.73;;
20814;SDS011;10568;48.176;16.316;2022-07-29T05:19:31;5.43;;;3.33;;
20814;SDS011;10568;48.176;16.316;2022-07-29T05:21:56;5.47;;;3.70;;
20814;SDS011;10568;48.176;16.316;2022-07-29T05:24:22;5.53;;;3.80;;
20814;SDS011;10568;48.176;16.316;2022-07-29T05:26:48;6.20;;;3.57;;
20814;SDS011;10568;48.176;16.316;2022-07-29T05:29:14;4.87;;;3.27;;
20814;SDS011;10568;48.176;16.316;2022-07-29T05:31:39;5.43;;;3.20;;
20814;SDS011;10568;48.176;16.316;2022-07-29T05:34:05;5.13;;;3.60;;
20814;SDS011;10568;48.176;16.316;2022-07-29T05:36:31;4.03;;;3.33;;
20814;SDS011;10568;48.176;16.316;2022-07-29T05:38:56;4.53;;;3.47;;
20814;SDS011;10568;48.176;16.316;2022-07-29T05:41:22;4.30;;;3.43;;
20814;SDS011;10568;48.176;16.316;2022-07-29T05:43:48;5.13;;;3.70;;
20814;SDS011;10568;48.176;16.316;2022-07-29T05:46:14;4.70;;;3.43;;
20814;SDS011;10568;48.176;16.316;2022-07-29T05:48:40;4.40;;;3.20;;
20814;SDS011;10568;48.176;16.316;2022-07-29T05:51:05;4.67;;;3.43;;
20814;SDS011;10568;48.176;16.316;2022-07-29T05:53:31;5.05;;;3.40;;
20814;SDS011;10568;48.176;16.316;2022-07-29T05:55:57;4.07;;;3.67;;
20814;SDS011;10568;48.176;16.316;2022-07-29T05:58:23;5.15;;;3.75;;
20814;SDS011;10568;48.176;16.316;2022-07-29T06:00:49;5.85;;;3.20;;
20814;SDS011;10568;48.176;16.316;2022-07-29T06:03:14;4.10;;;3.70;;
20814;SDS011;10568;48.176;16.316;2022-07-29T06:05:40;3.95;;;3.40;;
20814;SDS011;10568;48.176;16.316;2022-07-29T06:08:06;5.47;;;3.22;;
20814;SDS011;10568;48.176;16.316;2022-07-29T06:10:32;4.45;;;3.33;;
20814;SDS011;10568;48.176;16.316;2022-07-29T06:13:00;4.78;;;3.33;;
20814;SDS011;10568;48.176;16.316;2022-07-29T06:15:26;4.32;;;3.08;;
20814;SDS011;10568;48.176;16.316;2022-07-29T06:18:01;4.07;;;3.63;;
20814;SDS011;10568;48.176;16.316;2022-07-29T06:20:30;4.95;;;3.30;;
20814;SDS011;10568;48.176;16.316;2022-07-29T06:22:56;5.15;;;3.28;;
20814;SDS011;10568;48.176;16.316;2022-07-29T06:25:22;4.40;;;3.20;;
20814;SDS011;10568;48.176;16.316;2022-07-29T06:30:39;3.88;;;3.17;;
20814;SDS011;10568;48.176;16.316;2022-07-29T06:33:05;15.63;;;3.50;;
20814;SDS011;10568;48.176;16.316;2022-07-29T06:35:34;4.72;;;3.22;;
20814;SDS011;10568;48.176;16.316;2022-07-29T06:38:00;4.43;;;3.30;;
20814;SDS011;10568;48.176;16.316;2022-07-29T06:40:29;3.90;;;3.40;;
20814;SDS011;10568;48.176;16.316;2022-07-29T06:43:13;5.07;;;3.42;;
20814;SDS011;10568;48.176;16.316;2022-07-29T06:45:38;3.95;;;3.08;;
20814;SDS011;10568;48.176;16.316;2022-07-29T06:48:06;3.50;;;3.08;;
20814;SDS011;10568;48.176;16.316;2022-07-29T06:50:31;3.80;;;3.40;;
20814;SDS011;10568;48.176;16.316;2022-07-29T06:52:57;3.33;;;3.03;;
20814;SDS011;10568;48.176;16.316;2022-07-29T06:55:23;3.42;;;3.13;;
20814;SDS011;10568;48.176;16.316;2022-07-29T06:57:49;4.43;;;3.25;;
20814;SDS011;10568;48.176;16.316;2022-07-29T07:00:15;4.30;;;3.55;;
20814;SDS011;10568;48.176;16.316;2022-07-29T07:02:41;4.55;;;3.03;;
20814;SDS011;10568;48.176;16.316;2022-07-29T07:05:07;5.35;;;3.10;;
20814;SDS011;10568;48.176;16.316;2022-07-29T07:07:32;5.30;;;3.50;;
20814;SDS011;10568;48.176;16.316;2022-07-29T07:09:58;3.50;;;3.20;;
20814;SDS011;10568;48.176;16.316;2022-07-29T07:12:24;4.38;;;3.17;;
20814;SDS011;10568;48.176;16.316;2022-07-29T07:14:50;4.25;;;3.33;;
20814;SDS011;10568;48.176;16.316;2022-07-29T07:17:16;5.18;;;3.00;;
20814;SDS011;10568;48.176;16.316;2022-07-29T07:19:41;3.63;;;3.10;;
20814;SDS011;10568;48.176;16.316;2022-07-29T07:22:07;4.18;;;2.83;;
20814;SDS011;10568;48.176;16.316;2022-07-29T07:24:33;3.50;;;3.17;;
20814;SDS011;10568;48.176;16.316;2022-07-29T07:26:59;4.80;;;3.00;;
20814;SDS011;10568;48.176;16.316;2022-07-29T07:29:25;4.05;;;2.75;;
20814;SDS011;10568;48.176;16.316;2022-07-29T07:31:50;4.30;;;3.25;;
20814;SDS011;10568;48.176;16.316;2022-07-29T07:34:16;3.17;;;2.90;;
20814;SDS011;10568;48.176;16.316;2022-07-29T07:36:48;4.43;;;2.80;;
20814;SDS011;10568;48.176;16.316;2022-07-29T07:39:14;3.53;;;2.90;;
20814;SDS011;10568;48.176;16.316;2022-07-29T07:41:39;3.50;;;2.92;;
20814;SDS011;10568;48.176;16.316;2022-07-29T07:44:05;4.35;;;2.95;;
20814;SDS011;10568;48.176;16.316;2022-07-29T07:46:31;5.30;;;3.08;;
20814;SDS011;10568;48.176;16.316;2022-07-29T07:48:57;5.05;;;3.25;;
20814;SDS011;10568;48.176;16.316;2022-07-29T07:51:22;4.70;;;3.13;;
20814;SDS011;10568;48.176;16.316;2022-07-29T07:53:48;3.42;;;3.10;;
20814;SDS011;10568;48.176;16.316;2022-07-29T07:56:15;4.03;;;3.03;;
20814;SDS011;10568;48.176;16.316;2022-07-29T07:58:41;4.00;;;3.20;;
20814;SDS011;10568;48.176;16.316;2022-07-29T08:01:08;3.20;;;2.80;;
20814;SDS011;10568;48.176;16.316;2022-07-29T08:03:34;4.53;;;2.95;;
20814;SDS011;10568;48.176;16.316;2022-07-29T08:06:00;4.30;;;3.35;;
20814;SDS011;10568;48.176;16.316;2022-07-29T08:08:26;4.35;;;3.42;;
20814;SDS011;10568;48.176;16.316;2022-07-29T08:10:52;4.93;;;3.05;;
20814;SDS011;10568;48.176;16.316;2022-07-29T08:13:18;4.40;;;3.10;;
20814;SDS011;10568;48.176;16.316;2022-07-29T08:15:45;3.80;;;2.95;;
20814;SDS011;10568;48.176;16.316;2022-07-29T08:18:13;7.18;;;3.45;;
20814;SDS011;10568;48.176;16.316;2022-07-29T08:20:39;3.38;;;2.63;;
20814;SDS011;10568;48.176;16.316;2022-07-29T08:23:06;3.95;;;3.08;;
20814;SDS011;10568;48.176;16.316;2022-07-29T08:25:36;3.97;;;3.13;;
20814;SDS011;10568;48.176;16.316;2022-07-29T08:28:03;3.38;;;3.08;;
20814;SDS011;10568;48.176;16.316;2022-07-29T08:30:29;4.05;;;3.20;;
20814;SDS011;10568;48.176;16.316;2022-07-29T08:32:55;6.05;;;3.22;;
20814;SDS011;10568;48.176;16.316;2022-07-29T08:35:22;3.85;;;3.10;;
20814;SDS011;10568;48.176;16.316;2022-07-29T08:37:48;5.07;;;3.20;;
20814;SDS011;10568;48.176;16.316;2022-07-29T08:40:14;3.53;;;3.22;;
20814;SDS011;10568;48.176;16.316;2022-07-29T08:42:40;3.47;;;2.95;;
20814;SDS011;10568;48.176;16.316;2022-07-29T08:45:06;3.83;;;3.10;;
20814;SDS011;10568;48.176;16.316;2022-07-29T08:47:32;3.25;;;2.95;;
20814;SDS011;10568;48.176;16.316;2022-07-29T08:49:58;5.43;;;3.53;;
20814;SDS011;10568;48.176;16.316;2022-07-29T08:52:25;4.35;;;3.10;;
20814;SDS011;10568;48.176;16.316;2022-07-29T08:54:52;3.00;;;2.70;;
20814;SDS011;10568;48.176;16.316;2022-07-29T08:57:18;4.40;;;2.72;;
20814;SDS011;10568;48.176;16.316;2022-07-29T08:59:46;4.30;;;2.55;;
20814;SDS011;10568;48.176;16.316;2022-07-29T09:02:20;2.88;;;2.58;;
20814;SDS011;10568;48.176;16.316;2022-07-29T09:04:47;3.08;;;2.78;;
20814;SDS011;10568;48.176;16.316;2022-07-29T09:07:17;2.95;;;2.63;;
20814;SDS011;10568;48.176;16.316;2022-07-29T09:09:43;3.20;;;2.90;;
20814;SDS011;10568;48.176;16.316;2022-07-29T09:12:11;3.90;;;2.70;;
20814;SDS011;10568;48.176;16.316;2022-07-29T09:14:38;3.97;;;2.97;;
20814;SDS011;10568;48.176;16.316;2022-07-29T09:17:04;3.28;;;2.72;;
20814;SDS011;10568;48.176;16.316;2022-07-29T09:19:31;3.00;;;2.70;;
20814;SDS011;10568;48.176;16.316;2022-07-29T09:22:00;3.58;;;2.58;;
20814;SDS011;10568;48.176;16.316;2022-07-29T09:24:35;3.03;;;2.60;;
20814;SDS011;10568;48.176;16.316;2022-07-29T09:27:02;4.38;;;3.03;;
20814;SDS011;10568;48.176;16.316;2022-07-29T09:29:42;3.20;;;2.50;;
20814;SDS011;10568;48.176;16.316;2022-07-29T09:32:09;3.78;;;2.50;;
20814;SDS011;10568;48.176;16.316;2022-07-29T09:34:35;2.70;;;2.50;;
20814;SDS011;10568;48.176;16.316;2022-07-29T09:37:02;4.55;;;3.00;;
20814;SDS011;10568;48.176;16.316;2022-07-29T09:42:10;3.83;;;2.88;;
20814;SDS011;10568;48.176;16.316;2022-07-29T09:47:59;3.17;;;2.53;;
20814;SDS011;10568;48.176;16.316;2022-07-29T09:50:38;3.30;;;2.92;;
20814;SDS011;10568;48.176;16.316;2022-07-29T09:53:05;2.95;;;2.63;;
20814;SDS011;10568;48.176;16.316;2022-07-29T09:55:31;5.03;;;2.50;;
20814;SDS011;10568;48.176;16.316;2022-07-29T09:58:19;2.75;;;2.55;;
20814;SDS011;10568;48.176;16.316;2022-07-29T10:00:53;2.85;;;2.55;;
20814;SDS011;10568;48.176;16.316;2022-07-29T10:03:20;3.95;;;2.65;;
20814;SDS011;10568;48.176;16.316;2022-07-29T10:06:03;3.05;;;2.65;;
20814;SDS011;10568;48.176;16.316;2022-07-29T10:08:33;2.67;;;2.47;;
20814;SDS011;10568;48.176;16.316;2022-07-29T10:11:09;3.47;;;2.47;;
20814;SDS011;10568;48.176;16.316;2022-07-29T10:13:36;2.90;;;2.58;;
20814;SDS011;10568;48.176;16.316;2022-07-29T10:16:02;3.67;;;2.70;;
20814;SDS011;10568;48.176;16.316;2022-07-29T10:18:29;2.70;;;2.50;;
20814;SDS011;10568;48.176;16.316;2022-07-29T10:20:55;3.80;;;2.75;;
20814;SDS011;10568;48.176;16.316;2022-07-29T10:23:21;2.60;;;2.40;;
20814;SDS011;10568;48.176;16.316;2022-07-29T10:25:49;4.00;;;2.17;;
20814;SDS011;10568;48.176;16.316;2022-07-29T10:28:15;2.58;;;2.38;;
20814;SDS011;10568;48.176;16.316;2022-07-29T10:30:41;2.88;;;2.67;;
20814;SDS011;10568;48.176;16.316;2022-07-29T10:41:34;3.20;;;2.60;;
20814;SDS011;10568;48.176;16.316;2022-07-29T10:44:21;3.05;;;2.60;;
20814;SDS011;10568;48.176;16.316;2022-07-29T10:46:48;2.92;;;2.63;;
20814;SDS011;10568;48.176;16.316;2022-07-29T10:57:23;5.80;;;3.35;;
20814;SDS011;10568;48.176;16.316;2022-07-29T11:05:16;4.53;;;3.22;;
20814;SDS011;10568;48.176;16.316;2022-07-29T11:10:39;3.45;;;3.13;;
20814;SDS011;10568;48.176;16.316;2022-07-29T11:16:07;3.17;;;2.85;;
20814;SDS011;10568;48.176;16.316;2022-07-29T11:18:32;3.17;;;2.80;;
20814;SDS011;10568;48.176;16.316;2022-07-29T11:20:58;3.03;;;2.72;;
20814;SDS011;10568;48.176;16.316;2022-07-29T11:31:43;2.78;;;2.50;;
20814;SDS011;10568;48.176;16.316;2022-07-29T11:39:45;2.90;;;2.58;;
20814;SDS011;10568;48.176;16.316;2022-07-29T11:44:58;4.35;;;2.92;;
20814;SDS011;10568;48.176;16.316;2022-07-29T11:47:37;3.17;;;2.88;;
20814;SDS011;10568;48.176;16.316;2022-07-29T11:50:06;3.78;;;3.10;;
20814;SDS011;10568;48.176;16.316;2022-07-29T11:52:37;3.92;;;2.90;;
20814;SDS011;10568;48.176;16.316;2022-07-29T11:55:09;3.00;;;2.70;;
20814;SDS011;10568;48.176;16.316;2022-07-29T11:57:44;3.58;;;2.78;;
20814;SDS011;10568;48.176;16.316;2022-07-29T12:00:22;3.65;;;2.65;;
20814;SDS011;10568;48.176;16.316;2022-07-29T12:02:53;2.63;;;2.40;;
20814;SDS011;10568;48.176;16.316;2022-07-29T12:05:20;3.53;;;3.00;;
20814;SDS011;10568;48.176;16.316;2022-07-29T12:07:47;3.25;;;2.95;;
20814;SDS011;10568;48.176;16.316;2022-07-29T12:10:13;3.25;;;2.95;;
20814;SDS011;10568;48.176;16.316;2022-07-29T12:12:40;4.07;;;2.80;;
20814;SDS011;10568;48.176;16.316;2022-07-29T12:15:15;2.88;;;2.65;;
20814;SDS011;10568;48.176;16.316;2022-07-29T12:17:44;3.42;;;2.90;;
20814;SDS011;10568;48.176;16.316;2022-07-29T12:20:11;2.80;;;2.45;;
20814;SDS011;10568;48.176;16.316;2022-07-29T12:22:41;3.00;;;2.70;;
20814;SDS011;10568;48.176;16.316;2022-07-29T12:25:12;3.92;;;3.03;;
20814;SDS011;10568;48.176;16.316;2022-07-29T12:27:41;2.88;;;2.60;;
20814;SDS011;10568;48.176;16.316;2022-07-29T12:30:12;3.42;;;2.67;;
20814;SDS011;10568;48.176;16.316;2022-07-29T12:32:41;3.60;;;2.58;;
20814;SDS011;10568;48.176;16.316;2022-07-29T12:35:14;2.92;;;2.72;;
20814;SDS011;10568;48.176;16.316;2022-07-29T12:37:43;4.90;;;2.92;;
20814;SDS011;10568;48.176;16.316;2022-07-29T12:40:11;4.38;;;2.78;;
20814;SDS011;10568;48.176;16.316;2022-07-29T12:42:38;3.25;;;2.95;;
20814;SDS011;10568;48.176;16.316;2022-07-29T12:45:04;3.28;;;2.67;;
20814;SDS011;10568;48.176;16.316;2022-07-29T12:47:31;3.35;;;3.05;;
20814;SDS011;10568;48.176;16.316;2022-07-29T12:52:52;3.30;;;3.00;;
20814;SDS011;10568;48.176;16.316;2022-07-29T12:58:07;2.92;;;2.72;;
20814;SDS011;10568;48.176;16.316;2022-07-29T13:00:33;2.83;;;2.63;;
20814;SDS011;10568;48.176;16.316;2022-07-29T13:02:59;2.90;;;2.70;;
20814;SDS011;10568;48.176;16.316;2022-07-29T13:05:39;3.47;;;3.17;;
20814;SDS011;10568;48.176;16.316;2022-07-29T13:08:09;3.47;;;2.70;;
20814;SDS011;10568;48.176;16.316;2022-07-29T13:10:36;3.05;;;2.70;;
20814;SDS011;10568;48.176;16.316;2022-07-29T13:13:03;3.45;;;2.53;;
20814;SDS011;10568;48.176;16.316;2022-07-29T13:15:44;3.78;;;2.70;;
20814;SDS011;10568;48.176;16.316;2022-07-29T13:20:54;6.60;;;3.15;;
20814;SDS011;10568;48.176;16.316;2022-07-29T13:23:21;3.28;;;2.75;;
20814;SDS011;10568;48.176;16.316;2022-07-29T13:25:47;3.30;;;2.70;;
20814;SDS011;10568;48.176;16.316;2022-07-29T13:28:12;3.63;;;2.55;;
20814;SDS011;10568;48.176;16.316;2022-07-29T13:30:41;3.00;;;2.70;;
20814;SDS011;10568;48.176;16.316;2022-07-29T13:33:07;2.95;;;2.67;;
20814;SDS011;10568;48.176;16.316;2022-07-29T13:35:33;3.08;;;2.80;;
20814;SDS011;10568;48.176;16.316;2022-07-29T13:37:59;3.90;;;2.55;;
20814;SDS011;10568;48.176;16.316;2022-07-29T13:40:24;3.45;;;3.00;;
20814;SDS011;10568;48.176;16.316;2022-07-29T13:42:50;3.30;;;3.00;;
20814;SDS011;10568;48.176;16.316;2022-07-29T13:45:16;3.33;;;2.88;;
20814;SDS011;10568;48.176;16.316;2022-07-29T13:47:42;4.15;;;3.00;;
20814;SDS011;10568;48.176;16.316;2022-07-29T13:50:08;3.72;;;3.10;;
20814;SDS011;10568;48.176;16.316;2022-07-29T13:52:35;3.67;;;3.10;;
20814;SDS011;10568;48.176;16.316;2022-07-29T13:55:03;4.00;;;3.38;;
20814;SDS011;10568;48.176;16.316;2022-07-29T13:57:35;5.30;;;3.55;;
20814;SDS011;10568;48.176;16.316;2022-07-29T14:00:01;5.15;;;3.13;;
20814;SDS011;10568;48.176;16.316;2022-07-29T14:02:27;3.70;;;3.30;;
20814;SDS011;10568;48.176;16.316;2022-07-29T14:04:53;3.70;;;3.40;;
20814;SDS011;10568;48.176;16.316;2022-07-29T14:07:19;3.50;;;3.20;;
20814;SDS011;10568;48.176;16.316;2022-07-29T14:09:45;3.88;;;3.47;;
20814;SDS011;10568;48.176;16.316;2022-07-29T14:12:11;4.63;;;3.60;;
20814;SDS011;10568;48.176;16.316;2022-07-29T14:14:37;4.20;;;3.80;;
20814;SDS011;10568;48.176;16.316;2022-07-29T14:17:02;4.47;;;3.80;;
20814;SDS011;10568;48.176;16.316;2022-07-29T14:19:31;5.05;;;4.20;;
20814;SDS011;10568;48.176;16.316;2022-07-29T14:22:00;5.15;;;3.78;;
20814;SDS011;10568;48.176;16.316;2022-07-29T14:24:27;4.55;;;3.53;;
20814;SDS011;10568;48.176;16.316;2022-07-29T14:26:53;4.95;;;3.92;;
20814;SDS011;10568;48.176;16.316;2022-07-29T14:29:19;4.22;;;3.70;;
20814;SDS011;10568;48.176;16.316;2022-07-29T14:31:45;5.47;;;3.95;;
20814;SDS011;10568;48.176;16.316;2022-07-29T14:34:11;6.05;;;4.00;;
20814;SDS011;10568;48.176;16.316;2022-07-29T14:36:37;4.65;;;4.15;;
20814;SDS011;10568;48.176;16.316;2022-07-29T14:39:02;4.45;;;4.03;;
20814;SDS011;10568;48.176;16.316;2022-07-29T14:41:29;4.80;;;4.03;;
20814;SDS011;10568;48.176;16.316;2022-07-29T14:43:54;4.65;;;3.78;;
20814;SDS011;10568;48.176;16.316;2022-07-29T14:46:20;4.90;;;3.83;;
20814;SDS011;10568;48.176;16.316;2022-07-29T14:48:46;6.70;;;4.13;;
20814;SDS011;10568;48.176;16.316;2022-07-29T14:51:12;5.60;;;4.57;;
20814;SDS011;10568;48.176;16.316;2022-07-29T14:53:38;8.75;;;3.90;;
20814;SDS011;10568;48.176;16.316;2022-07-29T14:56:03;7.70;;;4.65;;
20814;SDS011;10568;48.176;16.316;2022-07-29T14:58:29;5.57;;;4.63;;
20814;SDS011;10568;48.176;16.316;2022-07-29T15:00:55;5.80;;;4.60;;
20814;SDS011;10568;48.176;16.316;2022-07-29T15:03:21;7.32;;;5.00;;
20814;SDS011;10568;48.176;16.316;2022-07-29T15:05:47;4.70;;;4.20;;
20814;SDS011;10568;48.176;16.316;2022-07-29T15:08:12;5.60;;;4.53;;
20814;SDS011;10568;48.176;16.316;2022-07-29T15:10:38;6.00;;;4.40;;
20814;SDS011;10568;48.176;16.316;2022-07-29T15:13:04;5.80;;;4.57;;
20814;SDS011;10568;48.176;16.316;2022-07-29T15:15:30;5.78;;;4.30;;
20814;SDS011;10568;48.176;16.316;2022-07-29T15:17:55;5.53;;;4.35;;
20814;SDS011;10568;48.176;16.316;2022-07-29T15:20:21;4.75;;;3.80;;
20814;SDS011;10568;48.176;16.316;2022-07-29T15:22:50;4.90;;;4.40;;
20814;SDS011;10568;48.176;16.316;2022-07-29T15:25:16;5.05;;;3.92;;
20814;SDS011;10568;48.176;16.316;2022-07-29T15:27:41;5.07;;;3.90;;
20814;SDS011;10568;48.176;16.316;2022-07-29T15:30:07;4.85;;;4.15;;
20814;SDS011;10568;48.176;16.316;2022-07-29T15:32:34;4.50;;;3.63;;
20814;SDS011;10568;48.176;16.316;2022-07-29T15:34:59;4.28;;;3.88;;
20814;SDS011;10568;48.176;16.316;2022-07-29T15:37:25;4.35;;;3.95;;
20814;SDS011;10568;48.176;16.316;2022-07-29T15:39:53;4.20;;;3.80;;
20814;SDS011;10568;48.176;16.316;2022-07-29T15:42:31;4.53;;;4.13;;
20814;SDS011;10568;48.176;16.316;2022-07-29T15:45:00;4.13;;;3.70;;
20814;SDS011;10568;48.176;16.316;2022-07-29T15:47:28;6.38;;;4.57;;
20814;SDS011;10568;48.176;16.316;2022-07-29T15:49:54;5.95;;;4.20;;
20814;SDS011;10568;48.176;16.316;2022-07-29T15:52:20;5.13;;;3.72;;
20814;SDS011;10568;48.176;16.316;2022-07-29T15:54:46;4.82;;;4.32;;